sensor_id;sensor_type;location;lat;lon;timestamp;temperature;humidity
9824;DHT22;4951;50.778;7.196;2023-07-29T00:01:05;18.80;99.90
9824;DHT22;4951;50.778;7.196;2023-07-29T00:03:34;18.80;99.90
9824;DHT22;4951;50.778;7.196;2023-07-29T00:06:02;18.80;99.90
9824;DHT22;4951;50.778;7.196;2023-07-29T00:08:29;18.80;99.90
9824;DHT22;4951;50.778;7.196;2023-07-29T00:10:56;18.80;99.90
9824;DHT22;4951;50.778;7.196;2023-07-29T00:13:27;18.80;99.90
9824;DHT22;4951;50.778;7.196;2023-07-29T00:15:55;18.80;99.90
9824;DHT22;4951;50.778;7.196;2023-07-29T00:18:26;18.80;99.90
9824;DHT22;4951;50.778;7.196;2023-07-29T00:20:53;18.80;99.90
9824;DHT22;4951;50.778;7.196;2023-07-29T00:23:21;18.80;99.90
9824;DHT22;4951;50.778;7.196;2023-07-29T00:25:49;18.80;99.90
9824;DHT22;4951;50.778;7.196;2023-07-29T00:28:16;18.80;99.90
9824;DHT22;4951;50.778;7.196;2023-07-29T00:30:44;18.80;99.90
9824;DHT22;4951;50.778;7.196;2023-07-29T00:33:13;18.80;99.90
9824;DHT22;4951;50.778;7.196;2023-07-29T00:35:42;18.80;99.90
9824;DHT22;4951;50.778;7.196;2023-07-29T00:38:09;18.80;99.90
9824;DHT22;4951;50.778;7.196;2023-07-29T00:40:39;18.90;99.90
9824;DHT22;4951;50.778;7.196;2023-07-29T00:43:07;18.80;99.90
9824;DHT22;4951;50.778;7.196;2023-07-29T00:45:36;18.80;99.90
9824;DHT22;4951;50.778;7.196;2023-07-29T00:48:03;18.80;99.90
9824;DHT22;4951;50.778;7.196;2023-07-29T00:50:33;18.80;99.90
9824;DHT22;4951;50.778;7.196;2023-07-29T00:53:03;18.80;99.90
9824;DHT22;4951;50.778;7.196;2023-07-29T00:55:31;18.80;99.90
9824;DHT22;4951;50.778;7.196;2023-07-29T00:58:03;18.70;99.90
9824;DHT22;4951;50.778;7.196;2023-07-29T01:00:32;18.70;99.90
9824;DHT22;4951;50.778;7.196;2023-07-29T01:03:03;18.70;99.90
9824;DHT22;4951;50.778;7.196;2023-07-29T01:05:39;18.60;99.90
9824;DHT22;4951;50.778;7.196;2023-07-29T01:08:18;18.60;99.90
9824;DHT22;4951;50.778;7.196;2023-07-29T01:11:06;18.70;99.90
9824;DHT22;4951;50.778;7.196;2023-07-29T01:13:47;18.70;99.90
9824;DHT22;4951;50.778;7.196;2023-07-29T01:16:19;18.70;99.90
9824;DHT22;4951;50.778;7.196;2023-07-29T01:18:48;18.80;99.90
9824;DHT22;4951;50.778;7.196;2023-07-29T01:21:18;18.70;99.90
9824;DHT22;4951;50.778;7.196;2023-07-29T01:23:50;18.70;99.90
9824;DHT22;4951;50.778;7.196;2023-07-29T01:26:19;18.80;99.90
9824;DHT22;4951;50.778;7.196;2023-07-29T01:28:46;18.80;99.90
9824;DHT22;4951;50.778;7.196;2023-07-29T01:31:19;18.80;99.90
9824;DHT22;4951;50.778;7.196;2023-07-29T01:33:56;18.70;99.90
9824;DHT22;4951;50.778;7.196;2023-07-29T01:36:28;18.70;99.90
9824;DHT22;4951;50.778;7.196;2023-07-29T01:38:59;18.70;99.90
9824;DHT22;4951;50.778;7.196;2023-07-29T01:41:28;18.70;99.90
9824;DHT22;4951;50.778;7.196;2023-07-29T01:44:10;18.70;99.90
9824;DHT22;4951;50.778;7.196;2023-07-29T01:46:38;18.70;99.90
9824;DHT22;4951;50.778;7.196;2023-07-29T01:49:06;18.70;99.90
9824;DHT22;4951;50.778;7.196;2023-07-29T01:51:34;18.70;99.90
9824;DHT22;4951;50.778;7.196;2023-07-29T01:54:07;18.70;99.90
9824;DHT22;4951;50.778;7.196;2023-07-29T01:56:36;18.70;99.90
9824;DHT22;4951;50.778;7.196;2023-07-29T01:59:07;18.70;99.90
9824;DHT22;4951;50.778;7.196;2023-07-29T02:01:35;18.80;99.90
9824;DHT22;4951;50.778;7.196;2023-07-29T02:04:03;18.70;99.90
9824;DHT22;4951;50.778;7.196;2023-07-29T02:06:30;18.80;99.90
9824;DHT22;4951;50.778;7.196;2023-07-29T02:08:57;18.80;99.90
9824;DHT22;4951;50.778;7.196;2023-07-29T02:11:31;18.90;99.90
9824;DHT22;4951;50.778;7.196;2023-07-29T02:13:59;19.00;99.90
9824;DHT22;4951;50.778;7.196;2023-07-29T02:16:27;19.00;99.90
9824;DHT22;4951;50.778;7.196;2023-07-29T02:18:54;19.00;99.90
9824;DHT22;4951;50.778;7.196;2023-07-29T02:21:22;19.10;99.90
9824;DHT22;4951;50.778;7.196;2023-07-29T02:23:49;19.10;99.90
9824;DHT22;4951;50.778;7.196;2023-07-29T02:26:24;19.10;99.90
9824;DHT22;4951;50.778;7.196;2023-07-29T02:28:56;19.10;99.90
9824;DHT22;4951;50.778;7.196;2023-07-29T02:31:24;19.10;99.90
9824;DHT22;4951;50.778;7.196;2023-07-29T02:33:52;19.10;99.90
9824;DHT22;4951;50.778;7.196;2023-07-29T02:36:20;19.20;99.90
9824;DHT22;4951;50.778;7.196;2023-07-29T02:38:47;19.20;99.90
9824;DHT22;4951;50.778;7.196;2023-07-29T02:41:14;19.20;99.90
9824;DHT22;4951;50.778;7.196;2023-07-29T02:43:42;19.20;99.90
9824;DHT22;4951;50.778;7.196;2023-07-29T02:46:10;19.20;99.90
9824;DHT22;4951;50.778;7.196;2023-07-29T02:48:44;19.20;99.90
9824;DHT22;4951;50.778;7.196;2023-07-29T02:51:11;19.20;99.90
9824;DHT22;4951;50.778;7.196;2023-07-29T02:53:39;19.20;99.90
9824;DHT22;4951;50.778;7.196;2023-07-29T02:56:06;19.20;99.90
9824;DHT22;4951;50.778;7.196;2023-07-29T02:58:35;19.20;99.90
9824;DHT22;4951;50.778;7.196;2023-07-29T03:01:04;19.20;99.90
9824;DHT22;4951;50.778;7.196;2023-07-29T03:03:34;19.20;99.90
9824;DHT22;4951;50.778;7.196;2023-07-29T03:06:06;19.10;99.90
9824;DHT22;4951;50.778;7.196;2023-07-29T03:08:38;19.20;99.90
9824;DHT22;4951;50.778;7.196;2023-07-29T03:11:06;19.20;99.90
9824;DHT22;4951;50.778;7.196;2023-07-29T03:13:34;19.20;99.90
9824;DHT22;4951;50.778;7.196;2023-07-29T03:16:06;19.20;99.90
9824;DHT22;4951;50.778;7.196;2023-07-29T03:18:37;19.10;99.90
9824;DHT22;4951;50.778;7.196;2023-07-29T03:21:05;19.00;99.90
9824;DHT22;4951;50.778;7.196;2023-07-29T03:23:33;19.10;99.90
9824;DHT22;4951;50.778;7.196;2023-07-29T03:26:04;19.00;99.90
9824;DHT22;4951;50.778;7.196;2023-07-29T03:28:38;18.90;99.90
9824;DHT22;4951;50.778;7.196;2023-07-29T03:31:05;18.90;99.90
9824;DHT22;4951;50.778;7.196;2023-07-29T03:33:33;18.80;99.90
9824;DHT22;4951;50.778;7.196;2023-07-29T03:36:03;18.80;99.90
9824;DHT22;4951;50.778;7.196;2023-07-29T03:38:31;18.80;99.90
9824;DHT22;4951;50.778;7.196;2023-07-29T03:41:01;18.70;99.90
9824;DHT22;4951;50.778;7.196;2023-07-29T03:43:29;18.70;99.90
9824;DHT22;4951;50.778;7.196;2023-07-29T03:46:00;18.60;99.90
9824;DHT22;4951;50.778;7.196;2023-07-29T03:48:29;18.60;99.90
9824;DHT22;4951;50.778;7.196;2023-07-29T03:50:59;18.60;99.90
9824;DHT22;4951;50.778;7.196;2023-07-29T03:53:32;18.50;99.90
9824;DHT22;4951;50.778;7.196;2023-07-29T03:55:59;18.50;99.90
9824;DHT22;4951;50.778;7.196;2023-07-29T03:58:29;18.40;99.90
9824;DHT22;4951;50.778;7.196;2023-07-29T04:00:58;18.30;99.90
9824;DHT22;4951;50.778;7.196;2023-07-29T04:03:26;18.30;99.90
9824;DHT22;4951;50.778;7.196;2023-07-29T04:05:55;18.20;99.90
9824;DHT22;4951;50.778;7.196;2023-07-29T04:08:22;18.20;99.90
9824;DHT22;4951;50.778;7.196;2023-07-29T04:10:51;18.20;99.90
9824;DHT22;4951;50.778;7.196;2023-07-29T04:13:18;18.10;99.90
9824;DHT22;4951;50.778;7.196;2023-07-29T04:15:50;18.10;99.90
9824;DHT22;4951;50.778;7.196;2023-07-29T04:18:17;18.10;99.90
9824;DHT22;4951;50.778;7.196;2023-07-29T04:20:46;18.10;99.90
9824;DHT22;4951;50.778;7.196;2023-07-29T04:23:14;18.10;99.90
9824;DHT22;4951;50.778;7.196;2023-07-29T04:25:42;18.10;99.90
9824;DHT22;4951;50.778;7.196;2023-07-29T04:28:10;18.10;99.90
9824;DHT22;4951;50.778;7.196;2023-07-29T04:30:38;18.10;99.90
9824;DHT22;4951;50.778;7.196;2023-07-29T04:33:05;18.10;99.90
9824;DHT22;4951;50.778;7.196;2023-07-29T04:35:34;18.10;99.90
9824;DHT22;4951;50.778;7.196;2023-07-29T04:38:03;18.10;99.90
9824;DHT22;4951;50.778;7.196;2023-07-29T04:40:33;18.00;99.90
9824;DHT22;4951;50.778;7.196;2023-07-29T04:43:02;18.00;99.90
9824;DHT22;4951;50.778;7.196;2023-07-29T04:45:30;18.00;99.90
9824;DHT22;4951;50.778;7.196;2023-07-29T04:47:58;18.00;99.90
9824;DHT22;4951;50.778;7.196;2023-07-29T04:50:29;18.00;99.90
9824;DHT22;4951;50.778;7.196;2023-07-29T04:52:56;18.00;99.90
9824;DHT22;4951;50.778;7.196;2023-07-29T04:55:28;18.00;99.90
9824;DHT22;4951;50.778;7.196;2023-07-29T04:57:55;18.10;99.90
9824;DHT22;4951;50.778;7.196;2023-07-29T05:00:22;18.10;99.90
9824;DHT22;4951;50.778;7.196;2023-07-29T05:02:52;18.10;99.90
9824;DHT22;4951;50.778;7.196;2023-07-29T05:05:20;18.10;99.90
9824;DHT22;4951;50.778;7.196;2023-07-29T05:07:48;18.10;99.90
9824;DHT22;4951;50.778;7.196;2023-07-29T05:10:16;18.10;99.90
9824;DHT22;4951;50.778;7.196;2023-07-29T05:12:43;18.10;99.90
9824;DHT22;4951;50.778;7.196;2023-07-29T05:15:11;18.20;99.90
9824;DHT22;4951;50.778;7.196;2023-07-29T05:17:39;18.10;99.90
9824;DHT22;4951;50.778;7.196;2023-07-29T05:20:09;18.20;99.90
9824;DHT22;4951;50.778;7.196;2023-07-29T05:22:37;18.20;99.90
9824;DHT22;4951;50.778;7.196;2023-07-29T05:25:05;18.20;99.90
9824;DHT22;4951;50.778;7.196;2023-07-29T05:27:32;18.20;99.90
9824;DHT22;4951;50.778;7.196;2023-07-29T05:29:59;18.30;99.90
9824;DHT22;4951;50.778;7.196;2023-07-29T05:32:27;18.30;99.90
9824;DHT22;4951;50.778;7.196;2023-07-29T05:34:54;18.30;99.90
9824;DHT22;4951;50.778;7.196;2023-07-29T05:37:24;18.40;99.90
9824;DHT22;4951;50.778;7.196;2023-07-29T05:39:51;18.50;99.90
9824;DHT22;4951;50.778;7.196;2023-07-29T05:42:21;18.50;99.90
9824;DHT22;4951;50.778;7.196;2023-07-29T05:44:49;18.50;99.90
9824;DHT22;4951;50.778;7.196;2023-07-29T05:47:19;18.60;99.90
9824;DHT22;4951;50.778;7.196;2023-07-29T05:49:47;18.60;99.90
9824;DHT22;4951;50.778;7.196;2023-07-29T05:52:17;18.60;99.90
9824;DHT22;4951;50.778;7.196;2023-07-29T05:54:46;18.70;99.90
9824;DHT22;4951;50.778;7.196;2023-07-29T05:57:20;18.70;99.90
9824;DHT22;4951;50.778;7.196;2023-07-29T05:59:48;18.70;99.90
9824;DHT22;4951;50.778;7.196;2023-07-29T06:02:15;18.70;99.90
9824;DHT22;4951;50.778;7.196;2023-07-29T06:04:42;18.70;99.90
9824;DHT22;4951;50.778;7.196;2023-07-29T06:07:09;18.80;99.90
9824;DHT22;4951;50.778;7.196;2023-07-29T06:09:40;18.80;99.90
9824;DHT22;4951;50.778;7.196;2023-07-29T06:12:11;18.80;99.90
9824;DHT22;4951;50.778;7.196;2023-07-29T06:14:39;18.80;99.90
9824;DHT22;4951;50.778;7.196;2023-07-29T06:17:06;18.90;99.90
9824;DHT22;4951;50.778;7.196;2023-07-29T06:19:33;18.90;99.90
9824;DHT22;4951;50.778;7.196;2023-07-29T06:22:01;18.90;99.90
9824;DHT22;4951;50.778;7.196;2023-07-29T06:24:30;18.90;99.90
9824;DHT22;4951;50.778;7.196;2023-07-29T06:26:57;18.90;99.90
9824;DHT22;4951;50.778;7.196;2023-07-29T06:29:26;18.90;99.90
9824;DHT22;4951;50.778;7.196;2023-07-29T06:31:53;18.90;99.90
9824;DHT22;4951;50.778;7.196;2023-07-29T06:34:21;18.90;99.90
9824;DHT22;4951;50.778;7.196;2023-07-29T06:36:48;18.90;99.90
9824;DHT22;4951;50.778;7.196;2023-07-29T06:39:17;19.00;99.90
9824;DHT22;4951;50.778;7.196;2023-07-29T06:41:44;19.00;99.90
9824;DHT22;4951;50.778;7.196;2023-07-29T06:44:12;19.10;99.90
9824;DHT22;4951;50.778;7.196;2023-07-29T06:46:44;19.10;99.90
9824;DHT22;4951;50.778;7.196;2023-07-29T06:49:11;19.10;99.90
9824;DHT22;4951;50.778;7.196;2023-07-29T06:51:38;19.10;99.90
9824;DHT22;4951;50.778;7.196;2023-07-29T06:54:06;19.10;99.90
9824;DHT22;4951;50.778;7.196;2023-07-29T06:56:37;19.10;99.90
9824;DHT22;4951;50.778;7.196;2023-07-29T06:59:05;19.10;99.90
9824;DHT22;4951;50.778;7.196;2023-07-29T07:01:34;19.20;99.90
9824;DHT22;4951;50.778;7.196;2023-07-29T07:04:02;19.20;99.90
9824;DHT22;4951;50.778;7.196;2023-07-29T07:06:33;19.30;99.90
9824;DHT22;4951;50.778;7.196;2023-07-29T07:09:00;19.30;99.90
9824;DHT22;4951;50.778;7.196;2023-07-29T07:11:29;19.40;99.90
9824;DHT22;4951;50.778;7.196;2023-07-29T07:13:56;19.50;99.90
9824;DHT22;4951;50.778;7.196;2023-07-29T07:16:23;19.60;99.90
9824;DHT22;4951;50.778;7.196;2023-07-29T07:18:51;19.60;99.90
9824;DHT22;4951;50.778;7.196;2023-07-29T07:21:20;19.70;99.90
9824;DHT22;4951;50.778;7.196;2023-07-29T07:23:49;19.80;99.90
9824;DHT22;4951;50.778;7.196;2023-07-29T07:26:21;19.80;99.90
9824;DHT22;4951;50.778;7.196;2023-07-29T07:28:49;19.80;99.90
9824;DHT22;4951;50.778;7.196;2023-07-29T07:31:17;19.80;99.90
9824;DHT22;4951;50.778;7.196;2023-07-29T07:33:44;19.80;99.90
9824;DHT22;4951;50.778;7.196;2023-07-29T07:36:13;19.90;99.90
9824;DHT22;4951;50.778;7.196;2023-07-29T07:38:43;19.90;99.90
9824;DHT22;4951;50.778;7.196;2023-07-29T07:41:11;19.90;99.90
9824;DHT22;4951;50.778;7.196;2023-07-29T07:43:38;19.90;99.90
9824;DHT22;4951;50.778;7.196;2023-07-29T07:46:05;19.90;99.90
9824;DHT22;4951;50.778;7.196;2023-07-29T07:48:33;19.90;99.90
9824;DHT22;4951;50.778;7.196;2023-07-29T07:51:00;19.90;99.90
9824;DHT22;4951;50.778;7.196;2023-07-29T07:53:27;19.90;93.00
9824;DHT22;4951;50.778;7.196;2023-07-29T07:55:56;19.90;53.40
9824;DHT22;4951;50.778;7.196;2023-07-29T07:58:23;19.90;50.20
9824;DHT22;4951;50.778;7.196;2023-07-29T08:00:50;20.00;19.00
9824;DHT22;4951;50.778;7.196;2023-07-29T08:03:18;20.00;30.30
9824;DHT22;4951;50.778;7.196;2023-07-29T08:05:45;20.10;16.30
9824;DHT22;4951;50.778;7.196;2023-07-29T08:08:15;20.20;35.90
9824;DHT22;4951;50.778;7.196;2023-07-29T08:10:42;20.40;28.70
9824;DHT22;4951;50.778;7.196;2023-07-29T08:13:12;20.50;2.60
9824;DHT22;4951;50.778;7.196;2023-07-29T08:15:40;20.60;1.00
9824;DHT22;4951;50.778;7.196;2023-07-29T08:18:07;20.70;1.00
9824;DHT22;4951;50.778;7.196;2023-07-29T08:20:38;20.70;1.00
9824;DHT22;4951;50.778;7.196;2023-07-29T08:23:06;20.70;1.00
9824;DHT22;4951;50.778;7.196;2023-07-29T08:25:33;20.70;1.00
9824;DHT22;4951;50.778;7.196;2023-07-29T08:28:01;20.60;1.00
9824;DHT22;4951;50.778;7.196;2023-07-29T08:30:29;20.50;1.00
9824;DHT22;4951;50.778;7.196;2023-07-29T08:32:57;20.50;1.00
9824;DHT22;4951;50.778;7.196;2023-07-29T08:35:24;20.50;1.00
9824;DHT22;4951;50.778;7.196;2023-07-29T08:37:51;20.50;1.00
9824;DHT22;4951;50.778;7.196;2023-07-29T08:40:27;20.60;1.00
9824;DHT22;4951;50.778;7.196;2023-07-29T08:43:00;20.70;1.00
9824;DHT22;4951;50.778;7.196;2023-07-29T08:45:35;20.90;1.00
9824;DHT22;4951;50.778;7.196;2023-07-29T08:48:06;21.00;1.00
9824;DHT22;4951;50.778;7.196;2023-07-29T08:50:35;21.10;1.00
9824;DHT22;4951;50.778;7.196;2023-07-29T08:53:04;21.20;1.00
9824;DHT22;4951;50.778;7.196;2023-07-29T08:55:32;21.20;99.90
9824;DHT22;4951;50.778;7.196;2023-07-29T08:57:59;21.20;99.90
9824;DHT22;4951;50.778;7.196;2023-07-29T09:00:27;21.20;99.90
9824;DHT22;4951;50.778;7.196;2023-07-29T09:02:58;21.10;99.90
9824;DHT22;4951;50.778;7.196;2023-07-29T09:05:30;21.00;99.90
9824;DHT22;4951;50.778;7.196;2023-07-29T09:07:58;20.80;99.90
9824;DHT22;4951;50.778;7.196;2023-07-29T09:10:26;20.60;99.90
9824;DHT22;4951;50.778;7.196;2023-07-29T09:12:53;20.50;99.90
9824;DHT22;4951;50.778;7.196;2023-07-29T09:15:27;20.30;1.00
9824;DHT22;4951;50.778;7.196;2023-07-29T09:17:59;20.30;1.00
9824;DHT22;4951;50.778;7.196;2023-07-29T09:20:35;20.20;1.00
9824;DHT22;4951;50.778;7.196;2023-07-29T09:23:06;20.10;1.00
9824;DHT22;4951;50.778;7.196;2023-07-29T09:25:34;20.10;1.00
9824;DHT22;4951;50.778;7.196;2023-07-29T09:28:07;20.00;1.00
9824;DHT22;4951;50.778;7.196;2023-07-29T09:30:34;20.00;1.00
9824;DHT22;4951;50.778;7.196;2023-07-29T09:33:02;20.00;1.00
9824;DHT22;4951;50.778;7.196;2023-07-29T09:35:33;19.90;1.00
9824;DHT22;4951;50.778;7.196;2023-07-29T09:38:01;19.90;1.00
9824;DHT22;4951;50.778;7.196;2023-07-29T09:40:35;19.80;99.90
9824;DHT22;4951;50.778;7.196;2023-07-29T09:43:04;19.90;99.90
9824;DHT22;4951;50.778;7.196;2023-07-29T09:45:33;20.00;99.90
9824;DHT22;4951;50.778;7.196;2023-07-29T09:48:03;20.10;99.90
9824;DHT22;4951;50.778;7.196;2023-07-29T09:50:30;20.20;99.90
9824;DHT22;4951;50.778;7.196;2023-07-29T09:52:58;20.30;99.90
9824;DHT22;4951;50.778;7.196;2023-07-29T09:55:27;20.50;99.90
9824;DHT22;4951;50.778;7.196;2023-07-29T09:57:57;20.50;99.90
9824;DHT22;4951;50.778;7.196;2023-07-29T10:00:28;20.60;99.90
9824;DHT22;4951;50.778;7.196;2023-07-29T10:02:56;20.60;99.90
9824;DHT22;4951;50.778;7.196;2023-07-29T10:05:28;20.60;99.90
9824;DHT22;4951;50.778;7.196;2023-07-29T10:07:57;20.60;99.90
9824;DHT22;4951;50.778;7.196;2023-07-29T10:10:24;20.50;99.90
9824;DHT22;4951;50.778;7.196;2023-07-29T10:12:53;20.50;71.30
9824;DHT22;4951;50.778;7.196;2023-07-29T10:15:24;20.40;99.90
9824;DHT22;4951;50.778;7.196;2023-07-29T10:17:53;20.50;99.90
9824;DHT22;4951;50.778;7.196;2023-07-29T10:20:20;20.50;99.90
9824;DHT22;4951;50.778;7.196;2023-07-29T10:22:52;20.50;99.90
9824;DHT22;4951;50.778;7.196;2023-07-29T10:25:23;20.50;99.90
9824;DHT22;4951;50.778;7.196;2023-07-29T10:27:56;20.50;99.90
9824;DHT22;4951;50.778;7.196;2023-07-29T10:30:24;20.50;99.90
9824;DHT22;4951;50.778;7.196;2023-07-29T10:33:01;20.50;99.90
9824;DHT22;4951;50.778;7.196;2023-07-29T10:35:29;20.50;99.90
9824;DHT22;4951;50.778;7.196;2023-07-29T10:38:02;20.40;99.90
9824;DHT22;4951;50.778;7.196;2023-07-29T10:40:44;20.40;99.90
9824;DHT22;4951;50.778;7.196;2023-07-29T10:43:12;20.30;99.90
9824;DHT22;4951;50.778;7.196;2023-07-29T10:45:41;20.20;1.00
9824;DHT22;4951;50.778;7.196;2023-07-29T10:48:11;20.10;1.00
9824;DHT22;4951;50.778;7.196;2023-07-29T10:50:38;20.10;1.00
9824;DHT22;4951;50.778;7.196;2023-07-29T10:53:07;20.00;1.00
9824;DHT22;4951;50.778;7.196;2023-07-29T10:55:36;20.00;1.00
9824;DHT22;4951;50.778;7.196;2023-07-29T10:58:09;19.90;1.00
9824;DHT22;4951;50.778;7.196;2023-07-29T11:00:42;19.70;1.00
9824;DHT22;4951;50.778;7.196;2023-07-29T11:03:12;19.50;1.00
9824;DHT22;4951;50.778;7.196;2023-07-29T11:05:49;19.40;1.00
9824;DHT22;4951;50.778;7.196;2023-07-29T11:08:25;19.30;1.00
9824;DHT22;4951;50.778;7.196;2023-07-29T11:11:04;19.20;1.00
9824;DHT22;4951;50.778;7.196;2023-07-29T11:13:33;19.20;1.00
9824;DHT22;4951;50.778;7.196;2023-07-29T11:16:00;19.20;1.00
9824;DHT22;4951;50.778;7.196;2023-07-29T11:18:30;19.20;27.50
9824;DHT22;4951;50.778;7.196;2023-07-29T11:20:59;19.30;55.00
9824;DHT22;4951;50.778;7.196;2023-07-29T11:23:32;19.50;77.70
9824;DHT22;4951;50.778;7.196;2023-07-29T11:26:00;19.70;99.90
9824;DHT22;4951;50.778;7.196;2023-07-29T11:28:28;20.00;99.90
9824;DHT22;4951;50.778;7.196;2023-07-29T11:30:57;20.20;99.90
9824;DHT22;4951;50.778;7.196;2023-07-29T11:33:26;20.20;48.10
9824;DHT22;4951;50.778;7.196;2023-07-29T11:35:54;20.30;62.60
9824;DHT22;4951;50.778;7.196;2023-07-29T11:38:23;20.40;46.80
9824;DHT22;4951;50.778;7.196;2023-07-29T11:40:58;20.30;1.00
9824;DHT22;4951;50.778;7.196;2023-07-29T11:43:25;20.30;1.00
9824;DHT22;4951;50.778;7.196;2023-07-29T11:45:54;20.40;1.00
9824;DHT22;4951;50.778;7.196;2023-07-29T11:48:31;20.60;1.00
9824;DHT22;4951;50.778;7.196;2023-07-29T11:50:59;20.70;1.00
9824;DHT22;4951;50.778;7.196;2023-07-29T11:53:28;20.80;1.00
9824;DHT22;4951;50.778;7.196;2023-07-29T11:55:58;20.80;1.00
9824;DHT22;4951;50.778;7.196;2023-07-29T11:58:26;20.80;1.00
9824;DHT22;4951;50.778;7.196;2023-07-29T12:00:53;20.80;1.00
9824;DHT22;4951;50.778;7.196;2023-07-29T12:03:21;20.90;1.00
9824;DHT22;4951;50.778;7.196;2023-07-29T12:05:50;21.00;1.00
9824;DHT22;4951;50.778;7.196;2023-07-29T12:08:18;21.00;1.00
9824;DHT22;4951;50.778;7.196;2023-07-29T12:10:46;21.10;1.00
9824;DHT22;4951;50.778;7.196;2023-07-29T12:13:15;21.20;1.00
9824;DHT22;4951;50.778;7.196;2023-07-29T12:15:43;21.40;1.00
9824;DHT22;4951;50.778;7.196;2023-07-29T12:18:12;21.50;1.00
9824;DHT22;4951;50.778;7.196;2023-07-29T12:20:41;21.70;1.00
9824;DHT22;4951;50.778;7.196;2023-07-29T12:23:08;21.80;1.00
9824;DHT22;4951;50.778;7.196;2023-07-29T12:25:36;22.00;1.00
9824;DHT22;4951;50.778;7.196;2023-07-29T12:28:04;22.20;1.00
9824;DHT22;4951;50.778;7.196;2023-07-29T12:30:33;22.40;1.00
9824;DHT22;4951;50.778;7.196;2023-07-29T12:33:01;22.50;1.00
9824;DHT22;4951;50.778;7.196;2023-07-29T12:35:38;22.50;1.00
9824;DHT22;4951;50.778;7.196;2023-07-29T12:38:05;22.40;1.00
9824;DHT22;4951;50.778;7.196;2023-07-29T12:40:37;22.40;1.00
9824;DHT22;4951;50.778;7.196;2023-07-29T12:43:04;22.40;1.00
9824;DHT22;4951;50.778;7.196;2023-07-29T12:45:37;22.50;1.00
9824;DHT22;4951;50.778;7.196;2023-07-29T12:48:05;22.60;1.00
9824;DHT22;4951;50.778;7.196;2023-07-29T12:50:33;22.80;1.00
9824;DHT22;4951;50.778;7.196;2023-07-29T12:53:00;23.00;1.00
9824;DHT22;4951;50.778;7.196;2023-07-29T12:55:31;23.10;1.00
9824;DHT22;4951;50.778;7.196;2023-07-29T12:58:01;23.20;1.00
9824;DHT22;4951;50.778;7.196;2023-07-29T13:00:30;23.30;1.00
9824;DHT22;4951;50.778;7.196;2023-07-29T13:02:59;23.60;1.00
9824;DHT22;4951;50.778;7.196;2023-07-29T13:05:28;23.90;1.00
9824;DHT22;4951;50.778;7.196;2023-07-29T13:07:56;23.90;99.90
9824;DHT22;4951;50.778;7.196;2023-07-29T13:10:23;23.90;99.90
9824;DHT22;4951;50.778;7.196;2023-07-29T13:12:50;23.90;99.90
9824;DHT22;4951;50.778;7.196;2023-07-29T13:15:18;23.90;99.90
9824;DHT22;4951;50.778;7.196;2023-07-29T13:17:48;23.80;99.90
9824;DHT22;4951;50.778;7.196;2023-07-29T13:20:17;23.60;1.00
9824;DHT22;4951;50.778;7.196;2023-07-29T13:22:44;23.40;1.00
9824;DHT22;4951;50.778;7.196;2023-07-29T13:25:11;23.30;1.00
9824;DHT22;4951;50.778;7.196;2023-07-29T13:27:40;23.10;1.00
9824;DHT22;4951;50.778;7.196;2023-07-29T13:30:09;23.00;1.00
9824;DHT22;4951;50.778;7.196;2023-07-29T13:32:36;22.80;1.00
9824;DHT22;4951;50.778;7.196;2023-07-29T13:35:04;22.60;2.20
9824;DHT22;4951;50.778;7.196;2023-07-29T13:37:33;22.40;99.90
9824;DHT22;4951;50.778;7.196;2023-07-29T13:40:00;22.20;99.90
9824;DHT22;4951;50.778;7.196;2023-07-29T13:42:28;22.00;99.90
9824;DHT22;4951;50.778;7.196;2023-07-29T13:44:56;21.80;99.90
9824;DHT22;4951;50.778;7.196;2023-07-29T13:47:23;21.70;99.90
9824;DHT22;4951;50.778;7.196;2023-07-29T13:49:50;21.60;99.90
9824;DHT22;4951;50.778;7.196;2023-07-29T13:52:18;21.50;99.90
9824;DHT22;4951;50.778;7.196;2023-07-29T13:54:47;21.40;99.90
9824;DHT22;4951;50.778;7.196;2023-07-29T13:57:15;21.20;1.00
9824;DHT22;4951;50.778;7.196;2023-07-29T13:59:43;21.10;1.00
9824;DHT22;4951;50.778;7.196;2023-07-29T14:02:10;21.00;1.00
9824;DHT22;4951;50.778;7.196;2023-07-29T14:04:38;21.00;1.00
9824;DHT22;4951;50.778;7.196;2023-07-29T14:07:09;20.90;1.00
9824;DHT22;4951;50.778;7.196;2023-07-29T14:09:37;20.90;1.00
9824;DHT22;4951;50.778;7.196;2023-07-29T14:12:07;20.80;1.00
9824;DHT22;4951;50.778;7.196;2023-07-29T14:14:39;20.80;1.00
9824;DHT22;4951;50.778;7.196;2023-07-29T14:17:07;20.80;1.00
9824;DHT22;4951;50.778;7.196;2023-07-29T14:19:36;20.80;1.00
9824;DHT22;4951;50.778;7.196;2023-07-29T14:22:05;20.70;1.00
9824;DHT22;4951;50.778;7.196;2023-07-29T14:24:32;20.70;1.00
9824;DHT22;4951;50.778;7.196;2023-07-29T14:27:01;20.70;1.00
9824;DHT22;4951;50.778;7.196;2023-07-29T14:29:36;20.70;1.00
9824;DHT22;4951;50.778;7.196;2023-07-29T14:32:03;20.70;1.00
9824;DHT22;4951;50.778;7.196;2023-07-29T14:34:33;20.70;1.00
9824;DHT22;4951;50.778;7.196;2023-07-29T14:37:01;20.70;1.00
9824;DHT22;4951;50.778;7.196;2023-07-29T14:39:28;20.70;1.00
9824;DHT22;4951;50.778;7.196;2023-07-29T14:41:56;20.70;1.00
9824;DHT22;4951;50.778;7.196;2023-07-29T14:44:23;20.60;1.00
9824;DHT22;4951;50.778;7.196;2023-07-29T14:46:52;20.60;1.00
9824;DHT22;4951;50.778;7.196;2023-07-29T14:49:19;20.60;1.00
9824;DHT22;4951;50.778;7.196;2023-07-29T14:51:46;20.60;1.00
9824;DHT22;4951;50.778;7.196;2023-07-29T14:54:13;20.60;1.00
9824;DHT22;4951;50.778;7.196;2023-07-29T14:56:41;20.60;1.00
9824;DHT22;4951;50.778;7.196;2023-07-29T14:59:08;20.50;1.00
9824;DHT22;4951;50.778;7.196;2023-07-29T15:01:35;20.50;1.00
9824;DHT22;4951;50.778;7.196;2023-07-29T15:04:07;20.50;1.00
9824;DHT22;4951;50.778;7.196;2023-07-29T15:06:35;20.50;1.00
9824;DHT22;4951;50.778;7.196;2023-07-29T15:09:06;20.50;1.00
9824;DHT22;4951;50.778;7.196;2023-07-29T15:11:33;20.50;1.00
9824;DHT22;4951;50.778;7.196;2023-07-29T15:14:01;20.40;1.00
9824;DHT22;4951;50.778;7.196;2023-07-29T15:16:31;20.40;1.00
9824;DHT22;4951;50.778;7.196;2023-07-29T15:18:59;20.40;1.00
9824;DHT22;4951;50.778;7.196;2023-07-29T15:21:29;20.50;1.00
9824;DHT22;4951;50.778;7.196;2023-07-29T15:23:59;20.50;1.00
9824;DHT22;4951;50.778;7.196;2023-07-29T15:26:28;20.60;1.00
9824;DHT22;4951;50.778;7.196;2023-07-29T15:28:55;20.80;1.00
9824;DHT22;4951;50.778;7.196;2023-07-29T15:31:22;20.80;1.00
9824;DHT22;4951;50.778;7.196;2023-07-29T15:33:49;20.90;1.00
9824;DHT22;4951;50.778;7.196;2023-07-29T15:36:17;20.90;1.00
9824;DHT22;4951;50.778;7.196;2023-07-29T15:38:46;21.10;1.00
9824;DHT22;4951;50.778;7.196;2023-07-29T15:41:14;21.20;1.00
9824;DHT22;4951;50.778;7.196;2023-07-29T15:43:41;21.20;1.00
9824;DHT22;4951;50.778;7.196;2023-07-29T15:46:11;21.30;1.00
9824;DHT22;4951;50.778;7.196;2023-07-29T15:48:38;21.30;1.00
9824;DHT22;4951;50.778;7.196;2023-07-29T15:51:05;21.20;1.00
9824;DHT22;4951;50.778;7.196;2023-07-29T15:53:34;21.10;1.00
9824;DHT22;4951;50.778;7.196;2023-07-29T15:56:02;21.00;1.00
9824;DHT22;4951;50.778;7.196;2023-07-29T15:58:33;20.80;1.00
9824;DHT22;4951;50.778;7.196;2023-07-29T16:01:04;20.70;1.00
9824;DHT22;4951;50.778;7.196;2023-07-29T16:03:33;20.60;1.00
9824;DHT22;4951;50.778;7.196;2023-07-29T16:06:06;20.50;1.00
9824;DHT22;4951;50.778;7.196;2023-07-29T16:08:34;20.40;1.00
9824;DHT22;4951;50.778;7.196;2023-07-29T16:11:02;20.30;1.00
9824;DHT22;4951;50.778;7.196;2023-07-29T16:13:33;20.20;1.00
9824;DHT22;4951;50.778;7.196;2023-07-29T16:16:00;20.20;1.00
9824;DHT22;4951;50.778;7.196;2023-07-29T16:18:30;20.10;1.00